sensor_id;sensor_type;location;lat;lon;timestamp;temperature;humidity
52743;DHT22;55583;53.012;6.556;2023-04-03T00:01:28;2.60;86.60
52743;DHT22;55583;53.012;6.556;2023-04-03T00:03:54;2.60;86.60
52743;DHT22;55583;53.012;6.556;2023-04-03T00:06:21;2.60;87.70
52743;DHT22;55583;53.012;6.556;2023-04-03T00:08:47;2.50;86.80
52743;DHT22;55583;53.012;6.556;2023-04-03T00:11:13;2.50;87.70
52743;DHT22;55583;53.012;6.556;2023-04-03T00:13:42;2.40;87.60
52743;DHT22;55583;53.012;6.556;2023-04-03T00:16:09;2.40;87.60
52743;DHT22;55583;53.012;6.556;2023-04-03T00:18:38;2.40;88.90
52743;DHT22;55583;53.012;6.556;2023-04-03T00:21:05;2.30;88.00
52743;DHT22;55583;53.012;6.556;2023-04-03T00:23:31;2.30;88.50
52743;DHT22;55583;53.012;6.556;2023-04-03T00:25:57;2.30;88.70
52743;DHT22;55583;53.012;6.556;2023-04-03T00:28:22;2.30;88.80
52743;DHT22;55583;53.012;6.556;2023-04-03T00:30:49;2.20;89.40
52743;DHT22;55583;53.012;6.556;2023-04-03T00:33:15;2.20;89.10
52743;DHT22;55583;53.012;6.556;2023-04-03T00:35:41;2.20;89.50
52743;DHT22;55583;53.012;6.556;2023-04-03T00:38:07;2.20;89.80
52743;DHT22;55583;53.012;6.556;2023-04-03T00:40:35;2.20;89.60
52743;DHT22;55583;53.012;6.556;2023-04-03T00:43:02;2.10;89.70
52743;DHT22;55583;53.012;6.556;2023-04-03T00:45:40;2.10;90.20
52743;DHT22;55583;53.012;6.556;2023-04-03T00:48:09;2.10;90.20
52743;DHT22;55583;53.012;6.556;2023-04-03T00:50:37;2.00;90.20
52743;DHT22;55583;53.012;6.556;2023-04-03T00:53:05;2.00;90.60
52743;DHT22;55583;53.012;6.556;2023-04-03T00:55:32;1.90;90.40
52743;DHT22;55583;53.012;6.556;2023-04-03T00:58:00;1.90;90.90
52743;DHT22;55583;53.012;6.556;2023-04-03T01:00:27;1.80;91.00
52743;DHT22;55583;53.012;6.556;2023-04-03T01:02:53;1.80;91.20
52743;DHT22;55583;53.012;6.556;2023-04-03T01:05:20;1.80;91.30
52743;DHT22;55583;53.012;6.556;2023-04-03T01:07:47;1.70;91.70
52743;DHT22;55583;53.012;6.556;2023-04-03T01:10:15;1.70;91.60
52743;DHT22;55583;53.012;6.556;2023-04-03T01:12:43;1.70;91.80
52743;DHT22;55583;53.012;6.556;2023-04-03T01:15:19;1.60;91.90
52743;DHT22;55583;53.012;6.556;2023-04-03T01:23:05;1.50;92.50
52743;DHT22;55583;53.012;6.556;2023-04-03T01:25:34;1.50;92.60
52743;DHT22;55583;53.012;6.556;2023-04-03T01:28:00;1.50;92.70
52743;DHT22;55583;53.012;6.556;2023-04-03T01:30:31;1.10;92.90
52743;DHT22;55583;53.012;6.556;2023-04-03T01:32:57;1.40;93.20
52743;DHT22;55583;53.012;6.556;2023-04-03T01:35:23;1.30;93.40
52743;DHT22;55583;53.012;6.556;2023-04-03T01:37:48;1.30;93.70
52743;DHT22;55583;53.012;6.556;2023-04-03T01:40:14;1.20;93.90
52743;DHT22;55583;53.012;6.556;2023-04-03T01:42:40;1.30;94.30
52743;DHT22;55583;53.012;6.556;2023-04-03T01:45:06;1.20;94.80
52743;DHT22;55583;53.012;6.556;2023-04-03T01:47:32;1.10;95.00
52743;DHT22;55583;53.012;6.556;2023-04-03T01:49:57;1.00;95.40
52743;DHT22;55583;53.012;6.556;2023-04-03T01:52:23;1.00;95.90
52743;DHT22;55583;53.012;6.556;2023-04-03T01:54:49;1.00;96.10
52743;DHT22;55583;53.012;6.556;2023-04-03T01:57:15;0.90;96.60
52743;DHT22;55583;53.012;6.556;2023-04-03T01:59:41;0.90;96.90
52743;DHT22;55583;53.012;6.556;2023-04-03T02:02:07;0.90;97.10
52743;DHT22;55583;53.012;6.556;2023-04-03T02:04:33;0.80;97.30
52743;DHT22;55583;53.012;6.556;2023-04-03T02:06:58;0.70;97.50
52743;DHT22;55583;53.012;6.556;2023-04-03T02:09:24;0.70;98.00
52743;DHT22;55583;53.012;6.556;2023-04-03T02:11:50;0.70;98.30
52743;DHT22;55583;53.012;6.556;2023-04-03T02:14:18;0.60;99.00
52743;DHT22;55583;53.012;6.556;2023-04-03T02:16:44;0.60;99.70
52743;DHT22;55583;53.012;6.556;2023-04-03T02:19:10;0.60;99.70
52743;DHT22;55583;53.012;6.556;2023-04-03T02:21:35;0.60;99.90
52743;DHT22;55583;53.012;6.556;2023-04-03T02:24:04;0.60;99.90
52743;DHT22;55583;53.012;6.556;2023-04-03T02:26:30;0.50;99.90
52743;DHT22;55583;53.012;6.556;2023-04-03T02:28:56;0.50;99.90
52743;DHT22;55583;53.012;6.556;2023-04-03T02:31:22;0.50;99.90
52743;DHT22;55583;53.012;6.556;2023-04-03T02:33:48;0.40;99.90
52743;DHT22;55583;53.012;6.556;2023-04-03T02:36:13;0.50;99.90
52743;DHT22;55583;53.012;6.556;2023-04-03T02:38:39;0.40;99.90
52743;DHT22;55583;53.012;6.556;2023-04-03T02:41:10;0.30;99.90
52743;DHT22;55583;53.012;6.556;2023-04-03T02:43:37;0.20;99.90
52743;DHT22;55583;53.012;6.556;2023-04-03T02:46:02;0.20;99.90
52743;DHT22;55583;53.012;6.556;2023-04-03T02:48:28;0.20;99.90
52743;DHT22;55583;53.012;6.556;2023-04-03T02:50:54;0.10;99.90
52743;DHT22;55583;53.012;6.556;2023-04-03T02:53:20;0.10;99.90
52743;DHT22;55583;53.012;6.556;2023-04-03T02:55:46;0.10;99.90
52743;DHT22;55583;53.012;6.556;2023-04-03T02:58:11;0.10;99.90
52743;DHT22;55583;53.012;6.556;2023-04-03T03:00:37;0.20;99.90
52743;DHT22;55583;53.012;6.556;2023-04-03T03:03:03;0.10;99.90
52743;DHT22;55583;53.012;6.556;2023-04-03T03:05:29;0.10;99.90
52743;DHT22;55583;53.012;6.556;2023-04-03T03:07:55;0.10;99.90
52743;DHT22;55583;53.012;6.556;2023-04-03T03:10:21;0.10;99.90
52743;DHT22;55583;53.012;6.556;2023-04-03T03:12:47;0.10;99.90
52743;DHT22;55583;53.012;6.556;2023-04-03T03:15:12;0.10;99.90
52743;DHT22;55583;53.012;6.556;2023-04-03T03:17:38;0.00;99.90
52743;DHT22;55583;53.012;6.556;2023-04-03T03:20:05;0.00;99.90
52743;DHT22;55583;53.012;6.556;2023-04-03T03:22:31;0.00;99.90
52743;DHT22;55583;53.012;6.556;2023-04-03T03:24:57;-0.10;99.90
52743;DHT22;55583;53.012;6.556;2023-04-03T03:27:22;-0.10;99.90
52743;DHT22;55583;53.012;6.556;2023-04-03T03:29:49;-0.20;99.90
52743;DHT22;55583;53.012;6.556;2023-04-03T03:32:14;-0.20;99.90
52743;DHT22;55583;53.012;6.556;2023-04-03T03:34:40;-0.30;99.90
52743;DHT22;55583;53.012;6.556;2023-04-03T03:37:06;-0.30;99.90
52743;DHT22;55583;53.012;6.556;2023-04-03T03:39:31;-0.40;99.90
52743;DHT22;55583;53.012;6.556;2023-04-03T03:41:57;-0.40;99.90
52743;DHT22;55583;53.012;6.556;2023-04-03T03:44:22;-0.50;99.90
52743;DHT22;55583;53.012;6.556;2023-04-03T03:46:48;-0.60;99.90
52743;DHT22;55583;53.012;6.556;2023-04-03T03:49:14;-0.70;99.90
52743;DHT22;55583;53.012;6.556;2023-04-03T03:51:39;-0.70;99.90
52743;DHT22;55583;53.012;6.556;2023-04-03T03:54:06;-0.70;99.90
52743;DHT22;55583;53.012;6.556;2023-04-03T03:56:32;-0.70;99.90
52743;DHT22;55583;53.012;6.556;2023-04-03T03:58:58;-0.70;99.90
52743;DHT22;55583;53.012;6.556;2023-04-03T04:01:24;-0.70;99.90
52743;DHT22;55583;53.012;6.556;2023-04-03T04:03:50;-0.70;99.90
52743;DHT22;55583;53.012;6.556;2023-04-03T04:06:16;-0.60;99.90
52743;DHT22;55583;53.012;6.556;2023-04-03T04:08:41;-0.60;99.90
52743;DHT22;55583;53.012;6.556;2023-04-03T04:11:08;-0.60;99.90
52743;DHT22;55583;53.012;6.556;2023-04-03T04:13:34;-0.60;99.90
52743;DHT22;55583;53.012;6.556;2023-04-03T04:15:59;-0.50;99.90
52743;DHT22;55583;53.012;6.556;2023-04-03T04:18:25;-0.50;99.90
52743;DHT22;55583;53.012;6.556;2023-04-03T04:20:51;-0.60;99.90
52743;DHT22;55583;53.012;6.556;2023-04-03T04:23:17;-0.50;99.90
52743;DHT22;55583;53.012;6.556;2023-04-03T04:25:47;-0.50;99.90
52743;DHT22;55583;53.012;6.556;2023-04-03T04:28:13;-0.50;99.90
52743;DHT22;55583;53.012;6.556;2023-04-03T04:30:39;-0.50;99.90
52743;DHT22;55583;53.012;6.556;2023-04-03T04:33:05;-0.50;99.90
52743;DHT22;55583;53.012;6.556;2023-04-03T04:35:30;-0.50;99.90
52743;DHT22;55583;53.012;6.556;2023-04-03T04:37:56;-0.50;99.90
52743;DHT22;55583;53.012;6.556;2023-04-03T04:40:22;-0.50;99.90
52743;DHT22;55583;53.012;6.556;2023-04-03T04:42:48;-0.60;99.90
52743;DHT22;55583;53.012;6.556;2023-04-03T04:45:13;-0.60;99.90
52743;DHT22;55583;53.012;6.556;2023-04-03T04:47:41;-0.50;99.90
52743;DHT22;55583;53.012;6.556;2023-04-03T04:50:06;-0.50;99.90
52743;DHT22;55583;53.012;6.556;2023-04-03T04:52:32;-0.50;99.90
52743;DHT22;55583;53.012;6.556;2023-04-03T04:54:58;-0.50;99.90
52743;DHT22;55583;53.012;6.556;2023-04-03T04:57:26;-0.60;99.90
52743;DHT22;55583;53.012;6.556;2023-04-03T04:59:55;-0.50;99.90
52743;DHT22;55583;53.012;6.556;2023-04-03T05:02:20;-0.60;99.90
52743;DHT22;55583;53.012;6.556;2023-04-03T05:04:46;-0.60;99.90
52743;DHT22;55583;53.012;6.556;2023-04-03T05:07:12;-0.60;99.90
52743;DHT22;55583;53.012;6.556;2023-04-03T05:09:37;-0.70;99.90
52743;DHT22;55583;53.012;6.556;2023-04-03T05:12:03;-0.70;99.90
52743;DHT22;55583;53.012;6.556;2023-04-03T05:14:29;-0.70;99.90
52743;DHT22;55583;53.012;6.556;2023-04-03T05:16:56;-0.70;99.90
52743;DHT22;55583;53.012;6.556;2023-04-03T05:19:23;-0.70;99.90
52743;DHT22;55583;53.012;6.556;2023-04-03T05:21:51;-0.70;99.90
52743;DHT22;55583;53.012;6.556;2023-04-03T05:24:17;-0.70;99.90
52743;DHT22;55583;53.012;6.556;2023-04-03T05:26:43;-0.70;99.90
52743;DHT22;55583;53.012;6.556;2023-04-03T05:29:09;0.30;99.90
52743;DHT22;55583;53.012;6.556;2023-04-03T05:31:35;-0.60;99.90
52743;DHT22;55583;53.012;6.556;2023-04-03T05:34:01;-0.60;99.90
52743;DHT22;55583;53.012;6.556;2023-04-03T05:36:27;-0.60;99.90
52743;DHT22;55583;53.012;6.556;2023-04-03T05:38:53;-0.60;99.90
52743;DHT22;55583;53.012;6.556;2023-04-03T05:41:19;-0.60;99.90
52743;DHT22;55583;53.012;6.556;2023-04-03T05:43:46;-0.60;99.90
52743;DHT22;55583;53.012;6.556;2023-04-03T05:46:15;-0.50;99.90
52743;DHT22;55583;53.012;6.556;2023-04-03T05:48:42;-0.50;99.90
52743;DHT22;55583;53.012;6.556;2023-04-03T05:51:18;-0.40;99.90
52743;DHT22;55583;53.012;6.556;2023-04-03T05:53:44;-0.20;99.90
52743;DHT22;55583;53.012;6.556;2023-04-03T05:56:12;-0.10;99.90
52743;DHT22;55583;53.012;6.556;2023-04-03T05:58:38;-0.10;99.90
52743;DHT22;55583;53.012;6.556;2023-04-03T06:01:04;-0.10;99.90
52743;DHT22;55583;53.012;6.556;2023-04-03T06:03:31;-0.10;99.90
52743;DHT22;55583;53.012;6.556;2023-04-03T06:05:57;0.00;99.90
52743;DHT22;55583;53.012;6.556;2023-04-03T06:08:22;0.10;99.90
52743;DHT22;55583;53.012;6.556;2023-04-03T06:10:49;0.10;99.90
52743;DHT22;55583;53.012;6.556;2023-04-03T06:13:16;0.20;99.90
52743;DHT22;55583;53.012;6.556;2023-04-03T06:15:42;0.30;99.90
52743;DHT22;55583;53.012;6.556;2023-04-03T06:18:08;0.20;99.90
52743;DHT22;55583;53.012;6.556;2023-04-03T06:20:34;0.20;99.90
52743;DHT22;55583;53.012;6.556;2023-04-03T06:23:00;0.20;99.90
52743;DHT22;55583;53.012;6.556;2023-04-03T06:25:25;0.30;99.90
52743;DHT22;55583;53.012;6.556;2023-04-03T06:27:52;0.30;99.90
52743;DHT22;55583;53.012;6.556;2023-04-03T06:30:17;0.30;99.90
52743;DHT22;55583;53.012;6.556;2023-04-03T06:32:43;0.30;99.90
52743;DHT22;55583;53.012;6.556;2023-04-03T06:35:09;0.40;99.90
52743;DHT22;55583;53.012;6.556;2023-04-03T06:37:34;0.40;99.90
52743;DHT22;55583;53.012;6.556;2023-04-03T06:40:01;0.50;99.90
52743;DHT22;55583;53.012;6.556;2023-04-03T06:42:26;0.60;99.90
52743;DHT22;55583;53.012;6.556;2023-04-03T06:44:52;0.70;99.90
52743;DHT22;55583;53.012;6.556;2023-04-03T06:47:18;0.70;99.90
52743;DHT22;55583;53.012;6.556;2023-04-03T06:49:44;0.90;99.90
52743;DHT22;55583;53.012;6.556;2023-04-03T06:52:10;1.00;99.90
52743;DHT22;55583;53.012;6.556;2023-04-03T06:54:38;1.10;99.90
52743;DHT22;55583;53.012;6.556;2023-04-03T06:57:04;1.60;99.90
52743;DHT22;55583;53.012;6.556;2023-04-03T06:59:29;1.80;99.90
52743;DHT22;55583;53.012;6.556;2023-04-03T07:01:55;2.00;99.90
52743;DHT22;55583;53.012;6.556;2023-04-03T07:04:21;1.90;99.90
52743;DHT22;55583;53.012;6.556;2023-04-03T07:06:47;2.30;99.90
52743;DHT22;55583;53.012;6.556;2023-04-03T07:09:13;2.70;99.90
52743;DHT22;55583;53.012;6.556;2023-04-03T07:11:39;2.80;99.90
52743;DHT22;55583;53.012;6.556;2023-04-03T07:14:06;2.90;99.90
52743;DHT22;55583;53.012;6.556;2023-04-03T07:16:36;3.00;99.90
52743;DHT22;55583;53.012;6.556;2023-04-03T07:19:02;3.10;99.90
52743;DHT22;55583;53.012;6.556;2023-04-03T07:21:28;3.10;99.90
52743;DHT22;55583;53.012;6.556;2023-04-03T07:23:54;3.10;99.90
52743;DHT22;55583;53.012;6.556;2023-04-03T07:26:20;3.10;99.90
52743;DHT22;55583;53.012;6.556;2023-04-03T07:28:47;3.30;99.90
52743;DHT22;55583;53.012;6.556;2023-04-03T07:31:14;3.30;99.90
52743;DHT22;55583;53.012;6.556;2023-04-03T07:33:43;3.70;99.90
52743;DHT22;55583;53.012;6.556;2023-04-03T07:36:09;4.00;99.90
52743;DHT22;55583;53.012;6.556;2023-04-03T07:38:36;4.00;99.90
52743;DHT22;55583;53.012;6.556;2023-04-03T07:41:02;5.10;99.90
52743;DHT22;55583;53.012;6.556;2023-04-03T07:43:27;6.10;98.40
52743;DHT22;55583;53.012;6.556;2023-04-03T07:45:53;6.50;92.50
52743;DHT22;55583;53.012;6.556;2023-04-03T07:48:24;6.50;91.00
52743;DHT22;55583;53.012;6.556;2023-04-03T07:50:51;6.20;86.80
52743;DHT22;55583;53.012;6.556;2023-04-03T07:53:17;6.80;89.30
52743;DHT22;55583;53.012;6.556;2023-04-03T07:55:45;8.70;84.10
52743;DHT22;55583;53.012;6.556;2023-04-03T07:58:14;9.10;78.00
52743;DHT22;55583;53.012;6.556;2023-04-03T08:00:40;8.70;74.50
52743;DHT22;55583;53.012;6.556;2023-04-03T08:03:07;8.20;75.30
52743;DHT22;55583;53.012;6.556;2023-04-03T08:05:38;7.60;76.20
52743;DHT22;55583;53.012;6.556;2023-04-03T08:08:05;8.00;76.40
52743;DHT22;55583;53.012;6.556;2023-04-03T08:10:31;8.00;75.40
52743;DHT22;55583;53.012;6.556;2023-04-03T08:12:58;8.70;74.30
52743;DHT22;55583;53.012;6.556;2023-04-03T08:15:23;9.10;71.80
52743;DHT22;55583;53.012;6.556;2023-04-03T08:17:50;8.80;70.40
52743;DHT22;55583;53.012;6.556;2023-04-03T08:20:16;8.60;70.90
52743;DHT22;55583;53.012;6.556;2023-04-03T08:22:41;9.10;69.10
52743;DHT22;55583;53.012;6.556;2023-04-03T08:25:07;8.80;68.50
52743;DHT22;55583;53.012;6.556;2023-04-03T08:27:33;8.90;68.00
52743;DHT22;55583;53.012;6.556;2023-04-03T08:29:59;8.60;67.60
52743;DHT22;55583;53.012;6.556;2023-04-03T08:32:25;9.20;67.30
52743;DHT22;55583;53.012;6.556;2023-04-03T08:34:51;10.40;65.90
52743;DHT22;55583;53.012;6.556;2023-04-03T08:37:16;11.40;62.30
52743;DHT22;55583;53.012;6.556;2023-04-03T08:39:43;11.60;60.30
52743;DHT22;55583;53.012;6.556;2023-04-03T08:45:17;10.90;58.10
52743;DHT22;55583;53.012;6.556;2023-04-03T08:48:06;10.60;60.10
52743;DHT22;55583;53.012;6.556;2023-04-03T08:50:40;10.70;58.50
52743;DHT22;55583;53.012;6.556;2023-04-03T08:53:15;10.20;58.70
52743;DHT22;55583;53.012;6.556;2023-04-03T08:55:51;10.30;58.80
52743;DHT22;55583;53.012;6.556;2023-04-03T08:58:22;11.50;58.30
52743;DHT22;55583;53.012;6.556;2023-04-03T09:03:30;12.00;56.80
52743;DHT22;55583;53.012;6.556;2023-04-03T09:11:26;11.80;56.10
52743;DHT22;55583;53.012;6.556;2023-04-03T09:14:01;12.00;56.10
52743;DHT22;55583;53.012;6.556;2023-04-03T09:19:34;11.70;55.90
52743;DHT22;55583;53.012;6.556;2023-04-03T09:22:27;11.70;54.80
52743;DHT22;55583;53.012;6.556;2023-04-03T09:27:23;12.00;54.30
52743;DHT22;55583;53.012;6.556;2023-04-03T09:29:49;12.10;54.50
52743;DHT22;55583;53.012;6.556;2023-04-03T09:32:37;12.00;54.10
52743;DHT22;55583;53.012;6.556;2023-04-03T09:35:15;12.10;52.80
52743;DHT22;55583;53.012;6.556;2023-04-03T09:37:45;12.10;51.30
52743;DHT22;55583;53.012;6.556;2023-04-03T09:43:00;13.20;47.50
52743;DHT22;55583;53.012;6.556;2023-04-03T09:45:33;14.90;48.60
52743;DHT22;55583;53.012;6.556;2023-04-03T09:48:19;16.70;45.80
52743;DHT22;55583;53.012;6.556;2023-04-03T09:50:56;18.00;40.00
52743;DHT22;55583;53.012;6.556;2023-04-03T09:53:42;18.70;39.70
52743;DHT22;55583;53.012;6.556;2023-04-03T09:58:47;20.60;39.90
52743;DHT22;55583;53.012;6.556;2023-04-03T10:01:41;21.30;39.30
52743;DHT22;55583;53.012;6.556;2023-04-03T10:04:13;21.90;36.00
52743;DHT22;55583;53.012;6.556;2023-04-03T10:06:49;22.50;36.80
52743;DHT22;55583;53.012;6.556;2023-04-03T10:09:30;22.60;36.10
52743;DHT22;55583;53.012;6.556;2023-04-03T10:14:27;23.00;36.10
52743;DHT22;55583;53.012;6.556;2023-04-03T10:22:25;23.40;34.20
52743;DHT22;55583;53.012;6.556;2023-04-03T10:25:20;23.70;35.20
52743;DHT22;55583;53.012;6.556;2023-04-03T10:30:36;24.10;33.50
52743;DHT22;55583;53.012;6.556;2023-04-03T10:40:52;24.30;32.40
52743;DHT22;55583;53.012;6.556;2023-04-03T10:46:04;24.80;33.40
52743;DHT22;55583;53.012;6.556;2023-04-03T10:48:36;24.80;30.90
52743;DHT22;55583;53.012;6.556;2023-04-03T10:54:07;25.30;32.80
52743;DHT22;55583;53.012;6.556;2023-04-03T10:56:41;25.50;30.90
52743;DHT22;55583;53.012;6.556;2023-04-03T10:59:32;25.80;30.50
52743;DHT22;55583;53.012;6.556;2023-04-03T11:02:53;26.00;29.70
52743;DHT22;55583;53.012;6.556;2023-04-03T11:04:57;25.20;30.00
52743;DHT22;55583;53.012;6.556;2023-04-03T11:07:28;25.00;30.70
52743;DHT22;55583;53.012;6.556;2023-04-03T11:10:02;24.90;30.50
52743;DHT22;55583;53.012;6.556;2023-04-03T11:12:50;25.10;30.90
52743;DHT22;55583;53.012;6.556;2023-04-03T11:15:19;25.10;29.30
52743;DHT22;55583;53.012;6.556;2023-04-03T11:18:00;24.60;31.50
52743;DHT22;55583;53.012;6.556;2023-04-03T11:20:32;24.50;30.00
52743;DHT22;55583;53.012;6.556;2023-04-03T11:23:23;24.10;30.80
52743;DHT22;55583;53.012;6.556;2023-04-03T11:25:53;24.10;31.20
52743;DHT22;55583;53.012;6.556;2023-04-03T11:28:19;24.00;31.10
52743;DHT22;55583;53.012;6.556;2023-04-03T11:30:59;23.80;31.70
52743;DHT22;55583;53.012;6.556;2023-04-03T11:37:05;24.60;29.80
52743;DHT22;55583;53.012;6.556;2023-04-03T11:41:45;23.70;32.20
52743;DHT22;55583;53.012;6.556;2023-04-03T11:44:41;23.90;32.20
52743;DHT22;55583;53.012;6.556;2023-04-03T11:47:11;24.80;30.70
52743;DHT22;55583;53.012;6.556;2023-04-03T11:50:04;24.60;31.50
52743;DHT22;55583;53.012;6.556;2023-04-03T12:08:42;21.70;32.00
52743;DHT22;55583;53.012;6.556;2023-04-03T12:21:23;21.50;33.30
52743;DHT22;55583;53.012;6.556;2023-04-03T12:46:11;21.50;33.70
52743;DHT22;55583;53.012;6.556;2023-04-03T12:51:14;21.10;34.10
52743;DHT22;55583;53.012;6.556;2023-04-03T12:53:40;20.60;33.80
52743;DHT22;55583;53.012;6.556;2023-04-03T12:56:25;20.20;34.00
52743;DHT22;55583;53.012;6.556;2023-04-03T12:58:57;20.20;34.20
52743;DHT22;55583;53.012;6.556;2023-04-03T13:01:37;19.90;34.10
52743;DHT22;55583;53.012;6.556;2023-04-03T13:04:03;19.90;34.30
52743;DHT22;55583;53.012;6.556;2023-04-03T13:06:41;20.10;35.20
52743;DHT22;55583;53.012;6.556;2023-04-03T13:09:23;20.50;33.80
52743;DHT22;55583;53.012;6.556;2023-04-03T13:12:01;20.60;34.40
52743;DHT22;55583;53.012;6.556;2023-04-03T13:14:28;20.80;34.30
52743;DHT22;55583;53.012;6.556;2023-04-03T13:19:25;20.70;34.20
52743;DHT22;55583;53.012;6.556;2023-04-03T13:22:01;20.70;34.30
52743;DHT22;55583;53.012;6.556;2023-04-03T13:24:29;21.00;34.10
52743;DHT22;55583;53.012;6.556;2023-04-03T13:26:56;20.60;34.50
52743;DHT22;55583;53.012;6.556;2023-04-03T13:29:27;20.20;35.10
52743;DHT22;55583;53.012;6.556;2023-04-03T13:31:55;19.70;34.40
52743;DHT22;55583;53.012;6.556;2023-04-03T13:34:22;19.00;35.60
52743;DHT22;55583;53.012;6.556;2023-04-03T13:37:00;18.90;35.90
52743;DHT22;55583;53.012;6.556;2023-04-03T13:39:29;18.70;36.00
52743;DHT22;55583;53.012;6.556;2023-04-03T13:41:58;18.70;36.90
52743;DHT22;55583;53.012;6.556;2023-04-03T13:44:32;18.70;36.40
52743;DHT22;55583;53.012;6.556;2023-04-03T13:47:01;18.60;35.40
52743;DHT22;55583;53.012;6.556;2023-04-03T13:49:42;18.50;35.70
52743;DHT22;55583;53.012;6.556;2023-04-03T13:54:52;18.20;36.50
52743;DHT22;55583;53.012;6.556;2023-04-03T13:57:19;18.10;35.90
52743;DHT22;55583;53.012;6.556;2023-04-03T13:59:45;17.50;35.60
52743;DHT22;55583;53.012;6.556;2023-04-03T14:02:20;17.70;37.20
52743;DHT22;55583;53.012;6.556;2023-04-03T14:04:49;18.00;36.10
52743;DHT22;55583;53.012;6.556;2023-04-03T14:07:16;18.20;36.50
52743;DHT22;55583;53.012;6.556;2023-04-03T14:09:43;18.00;35.80
52743;DHT22;55583;53.012;6.556;2023-04-03T14:12:18;18.10;36.20
52743;DHT22;55583;53.012;6.556;2023-04-03T14:14:45;18.60;36.40
52743;DHT22;55583;53.012;6.556;2023-04-03T14:17:20;18.20;35.90
52743;DHT22;55583;53.012;6.556;2023-04-03T14:19:48;18.20;35.40
52743;DHT22;55583;53.012;6.556;2023-04-03T14:22:40;18.60;36.30
52743;DHT22;55583;53.012;6.556;2023-04-03T14:25:06;19.10;36.40
52743;DHT22;55583;53.012;6.556;2023-04-03T14:27:44;19.40;36.10
52743;DHT22;55583;53.012;6.556;2023-04-03T14:30:28;19.60;35.20
52743;DHT22;55583;53.012;6.556;2023-04-03T14:33:01;19.70;34.60
52743;DHT22;55583;53.012;6.556;2023-04-03T14:35:26;19.60;34.50
52743;DHT22;55583;53.012;6.556;2023-04-03T14:37:53;19.60;34.60
52743;DHT22;55583;53.012;6.556;2023-04-03T14:40:24;19.50;34.70
52743;DHT22;55583;53.012;6.556;2023-04-03T14:42:50;19.30;33.90
52743;DHT22;55583;53.012;6.556;2023-04-03T14:45:17;18.90;34.60
52743;DHT22;55583;53.012;6.556;2023-04-03T14:47:49;19.00;35.20
52743;DHT22;55583;53.012;6.556;2023-04-03T14:50:18;19.20;34.40
52743;DHT22;55583;53.012;6.556;2023-04-03T14:52:47;19.00;34.60
52743;DHT22;55583;53.012;6.556;2023-04-03T14:55:15;18.60;34.40
52743;DHT22;55583;53.012;6.556;2023-04-03T14:57:41;18.00;34.70
52743;DHT22;55583;53.012;6.556;2023-04-03T15:00:15;17.90;35.00
52743;DHT22;55583;53.012;6.556;2023-04-03T15:02:41;18.10;36.30
52743;DHT22;55583;53.012;6.556;2023-04-03T15:05:09;18.40;35.40
52743;DHT22;55583;53.012;6.556;2023-04-03T15:07:38;18.50;34.20
52743;DHT22;55583;53.012;6.556;2023-04-03T15:10:22;18.30;34.80
52743;DHT22;55583;53.012;6.556;2023-04-03T15:12:49;18.70;36.50
52743;DHT22;55583;53.012;6.556;2023-04-03T15:15:17;18.90;35.60
52743;DHT22;55583;53.012;6.556;2023-04-03T15:17:45;19.20;35.10
52743;DHT22;55583;53.012;6.556;2023-04-03T15:20:19;18.50;34.60
52743;DHT22;55583;53.012;6.556;2023-04-03T15:22:46;18.40;35.90
52743;DHT22;55583;53.012;6.556;2023-04-03T15:25:12;18.50;35.80
52743;DHT22;55583;53.012;6.556;2023-04-03T15:27:38;18.70;35.70
52743;DHT22;55583;53.012;6.556;2023-04-03T15:30:07;18.90;35.30
52743;DHT22;55583;53.012;6.556;2023-04-03T15:32:33;19.20;35.10
52743;DHT22;55583;53.012;6.556;2023-04-03T15:35:00;19.30;34.80
52743;DHT22;55583;53.012;6.556;2023-04-03T15:37:26;19.40;34.40
52743;DHT22;55583;53.012;6.556;2023-04-03T15:39:52;19.00;33.90
52743;DHT22;55583;53.012;6.556;2023-04-03T15:42:18;18.50;35.00
52743;DHT22;55583;53.012;6.556;2023-04-03T15:44:43;18.20;35.80
52743;DHT22;55583;53.012;6.556;2023-04-03T15:47:09;17.90;35.10
52743;DHT22;55583;53.012;6.556;2023-04-03T15:49:35;17.40;35.90
52743;DHT22;55583;53.012;6.556;2023-04-03T15:52:01;17.20;36.50
52743;DHT22;55583;53.012;6.556;2023-04-03T15:54:27;17.10;36.30
52743;DHT22;55583;53.012;6.556;2023-04-03T15:56:55;16.90;35.90
52743;DHT22;55583;53.012;6.556;2023-04-03T15:59:21;16.50;37.00
52743;DHT22;55583;53.012;6.556;2023-04-03T16:01:47;16.30;37.50
52743;DHT22;55583;53.012;6.556;2023-04-03T16:04:13;16.30;37.90
52743;DHT22;55583;53.012;6.556;2023-04-03T16:06:40;16.10;37.40
52743;DHT22;55583;53.012;6.556;2023-04-03T16:09:06;16.00;38.00
52743;DHT22;55583;53.012;6.556;2023-04-03T16:11:32;16.00;38.30
52743;DHT22;55583;53.012;6.556;2023-04-03T16:14:00;16.10;38.90
52743;DHT22;55583;53.012;6.556;2023-04-03T16:16:26;15.90;39.80
52743;DHT22;55583;53.012;6.556;2023-04-03T16:18:54;15.70;39.00
52743;DHT22;55583;53.012;6.556;2023-04-03T16:21:20;15.40;39.60
52743;DHT22;55583;53.012;6.556;2023-04-03T16:23:46;14.90;40.30
52743;DHT22;55583;53.012;6.556;2023-04-03T16:26:12;14.60;41.20
52743;DHT22;55583;53.012;6.556;2023-04-03T16:28:38;14.20;41.20
52743;DHT22;55583;53.012;6.556;2023-04-03T16:31:05;13.80;40.90
52743;DHT22;55583;53.012;6.556;2023-04-03T16:33:31;13.60;41.30
52743;DHT22;55583;53.012;6.556;2023-04-03T16:35:56;13.20;41.00
52743;DHT22;55583;53.012;6.556;2023-04-03T16:38:22;12.90;42.30
52743;DHT22;55583;53.012;6.556;2023-04-03T16:40:48;12.70;42.50
52743;DHT22;55583;53.012;6.556;2023-04-03T16:43:15;12.50;42.20
52743;DHT22;55583;53.012;6.556;2023-04-03T16:45:41;12.10;41.40
52743;DHT22;55583;53.012;6.556;2023-04-03T16:48:07;11.80;42.30
52743;DHT22;55583;53.012;6.556;2023-04-03T16:50:33;11.50;42.40
52743;DHT22;55583;53.012;6.556;2023-04-03T16:52:59;11.30;43.40
52743;DHT22;55583;53.012;6.556;2023-04-03T16:55:27;11.20;43.70
52743;DHT22;55583;53.012;6.556;2023-04-03T16:57:53;11.20;44.10
52743;DHT22;55583;53.012;6.556;2023-04-03T17:00:19;11.10;44.60
52743;DHT22;55583;53.012;6.556;2023-04-03T17:02:45;11.00;44.30
52743;DHT22;55583;53.012;6.556;2023-04-03T17:05:11;10.90;44.30
52743;DHT22;55583;53.012;6.556;2023-04-03T17:07:36;10.80;44.60
52743;DHT22;55583;53.012;6.556;2023-04-03T17:10:02;10.70;44.90
52743;DHT22;55583;53.012;6.556;2023-04-03T17:12:28;10.60;45.40
52743;DHT22;55583;53.012;6.556;2023-04-03T17:14:53;10.50;45.70
52743;DHT22;55583;53.012;6.556;2023-04-03T17:17:22;10.40;45.50
52743;DHT22;55583;53.012;6.556;2023-04-03T17:19:48;10.20;46.10
52743;DHT22;55583;53.012;6.556;2023-04-03T17:22:14;10.00;46.10
52743;DHT22;55583;53.012;6.556;2023-04-03T17:24:42;9.90;46.00
52743;DHT22;55583;53.012;6.556;2023-04-03T17:27:07;9.80;47.00
52743;DHT22;55583;53.012;6.556;2023-04-03T17:29:33;9.70;47.50
52743;DHT22;55583;53.012;6.556;2023-04-03T17:31:59;9.60;47.10
52743;DHT22;55583;53.012;6.556;2023-04-03T17:34:24;9.50;47.60
52743;DHT22;55583;53.012;6.556;2023-04-03T17:36:50;9.50;48.10
52743;DHT22;55583;53.012;6.556;2023-04-03T17:39:16;9.40;48.10